createdAt,value
2018-08-11T00:01:31.486Z,72.60
2018-08-11T00:03:59.955Z,72.70
2018-08-11T00:06:28.480Z,72.70
2018-08-11T00:08:57.030Z,73.10
2018-08-11T00:11:25.571Z,73.10
2018-08-11T00:13:54.065Z,73.40
2018-08-11T00:16:22.606Z,74.00
2018-08-11T00:18:51.160Z,74.80
2018-08-11T00:21:19.647Z,75.50
2018-08-11T00:23:48.149Z,76.20
2018-08-11T00:26:16.790Z,76.70
2018-08-11T00:28:45.252Z,77.20
2018-08-11T00:31:13.716Z,77.40
2018-08-11T00:33:42.203Z,77.40
2018-08-11T00:36:10.737Z,77.30
2018-08-11T00:38:40.933Z,77.30
2018-08-11T00:41:09.438Z,77.30
2018-08-11T00:43:37.971Z,77.30
2018-08-11T00:46:06.613Z,77.60
2018-08-11T00:48:35.102Z,77.80
2018-08-11T00:51:03.644Z,77.90
2018-08-11T00:53:32.142Z,77.70
2018-08-11T00:56:00.622Z,77.50
2018-08-11T00:58:29.087Z,77.30
2018-08-11T01:00:57.609Z,77.30
2018-08-11T01:03:26.093Z,76.80
2018-08-11T01:05:54.665Z,76.70
2018-08-11T01:08:23.137Z,77.30
2018-08-11T01:10:51.615Z,77.40
2018-08-11T01:13:20.093Z,77.30
2018-08-11T01:15:48.747Z,77.40
2018-08-11T01:18:17.222Z,77.50
2018-08-11T01:20:45.733Z,77.70
2018-08-11T01:23:14.221Z,77.70
2018-08-11T01:25:42.706Z,77.90
2018-08-11T01:28:11.198Z,78.30
2018-08-11T01:30:39.705Z,78.30
2018-08-11T01:33:08.218Z,78.30
2018-08-11T01:35:36.737Z,78.80
2018-08-11T01:38:05.296Z,78.80
2018-08-11T01:40:33.783Z,78.70
2018-08-11T01:43:02.254Z,78.90
2018-08-11T01:45:30.715Z,79.10
2018-08-11T01:47:59.220Z,79.10
2018-08-11T01:50:27.721Z,79.10
2018-08-11T01:52:56.189Z,79.00
2018-08-11T01:55:24.746Z,78.90
2018-08-11T01:57:53.240Z,78.80
2018-08-11T02:00:21.937Z,78.90
2018-08-11T02:02:50.466Z,78.80
2018-08-11T02:05:18.937Z,78.70
2018-08-11T02:07:47.466Z,78.80
2018-08-11T02:10:17.761Z,79.00
2018-08-11T02:12:46.773Z,79.10
2018-08-11T02:15:15.696Z,79.20
2018-08-11T02:17:44.217Z,79.20
2018-08-11T02:20:14.322Z,79.20
2018-08-11T02:22:44.175Z,79.00
2018-08-11T02:25:12.683Z,78.90
2018-08-11T02:27:41.227Z,79.00
2018-08-11T02:30:13.311Z,79.20
2018-08-11T02:32:41.955Z,79.70
2018-08-11T02:35:11.546Z,80.50
2018-08-11T02:37:40.362Z,80.90
2018-08-11T02:40:10.635Z,81.60
2018-08-11T02:42:39.090Z,82.00
2018-08-11T02:45:08.800Z,82.20
2018-08-11T02:47:37.278Z,82.50
2018-08-11T02:50:07.362Z,82.60
2018-08-11T02:52:35.883Z,82.80
2018-08-11T02:55:04.425Z,82.60
2018-08-11T02:57:32.923Z,83.00
2018-08-11T03:00:01.388Z,83.00
2018-08-11T03:02:29.929Z,83.30
2018-08-11T03:04:58.357Z,83.40
2018-08-11T03:07:26.898Z,83.40
2018-08-11T03:09:55.354Z,83.60
2018-08-11T03:12:23.886Z,83.70
2018-08-11T03:14:52.329Z,83.80
2018-08-11T03:17:20.854Z,83.70
2018-08-11T03:19:49.344Z,83.60
2018-08-11T03:22:17.863Z,83.40
2018-08-11T03:24:46.303Z,83.40
2018-08-11T03:27:14.843Z,83.60
2018-08-11T03:29:43.276Z,83.60
2018-08-11T03:32:11.764Z,83.80
2018-08-11T03:34:40.231Z,83.90
2018-08-11T03:37:08.777Z,84.00
2018-08-11T03:39:37.295Z,84.40
2018-08-11T03:42:05.788Z,84.60
2018-08-11T03:44:34.257Z,85.20
2018-08-11T03:47:02.704Z,85.50
2018-08-11T03:49:31.160Z,85.70
2018-08-11T03:51:59.626Z,85.70
2018-08-11T03:54:28.299Z,85.60
2018-08-11T03:56:56.771Z,85.80
2018-08-11T03:59:25.218Z,86.10
2018-08-11T04:01:53.711Z,85.90
2018-08-11T04:04:22.184Z,86.10
2018-08-11T04:06:50.689Z,86.20
2018-08-11T04:09:19.179Z,86.10
2018-08-11T04:11:47.616Z,86.30
2018-08-11T04:16:50.696Z,86.20
2018-08-11T04:19:19.197Z,86.10
2018-08-11T04:21:47.666Z,86.00
2018-08-11T04:24:16.140Z,85.90
2018-08-11T04:26:44.568Z,86.30
2018-08-11T04:29:13.046Z,85.40
2018-08-11T04:31:41.501Z,85.20
2018-08-11T04:34:10.324Z,85.30
2018-08-11T04:36:38.783Z,85.30
2018-08-11T04:39:08.669Z,85.30
2018-08-11T04:41:37.805Z,85.20
2018-08-11T04:44:06.316Z,85.40
2018-08-11T04:46:34.998Z,85.20
2018-08-11T04:49:03.460Z,85.20
2018-08-11T04:51:31.901Z,85.30
2018-08-11T04:54:00.385Z,85.20
2018-08-11T04:56:28.817Z,85.10
2018-08-11T04:58:57.264Z,85.10
2018-08-11T05:01:25.746Z,84.90
2018-08-11T05:03:54.177Z,84.70
2018-08-11T05:06:23.610Z,84.90
2018-08-11T05:08:52.048Z,84.90
2018-08-11T05:11:20.548Z,84.90
2018-08-11T05:13:48.982Z,84.60
2018-08-11T05:16:17.477Z,84.10
2018-08-11T05:18:45.918Z,84.00
2018-08-11T05:21:14.396Z,83.90
2018-08-11T05:23:42.852Z,83.50
2018-08-11T05:26:11.358Z,83.40
2018-08-11T05:28:39.802Z,83.30
2018-08-11T05:31:08.293Z,83.00
2018-08-11T05:33:36.815Z,82.60
2018-08-11T05:36:05.775Z,82.70
2018-08-11T05:38:34.616Z,82.60
2018-08-11T05:41:03.137Z,82.90
2018-08-11T05:43:31.580Z,82.90
2018-08-11T05:46:00.119Z,82.80
2018-08-11T05:48:28.533Z,83.00
2018-08-11T05:50:57.001Z,82.70
2018-08-11T05:53:25.500Z,82.50
2018-08-11T05:55:53.982Z,82.60
2018-08-11T05:58:22.414Z,82.60
2018-08-11T06:00:50.877Z,82.20
2018-08-11T06:03:19.346Z,81.70
2018-08-11T06:05:48.152Z,81.90
2018-08-11T06:08:17.602Z,81.20
2018-08-11T06:10:46.067Z,81.20
2018-08-11T06:13:14.505Z,80.60
2018-08-11T06:15:43.122Z,80.20
2018-08-11T06:18:11.601Z,80.00
2018-08-11T06:20:40.072Z,78.20
2018-08-11T06:23:08.571Z,78.30
2018-08-11T06:25:37.064Z,77.80
2018-08-11T06:28:05.537Z,76.80
2018-08-11T06:30:34.026Z,76.10
2018-08-11T06:33:02.954Z,75.20
2018-08-11T06:35:31.416Z,74.10
2018-08-11T06:37:59.844Z,72.80
2018-08-11T06:40:28.915Z,72.00
2018-08-11T06:42:57.325Z,71.40
2018-08-11T06:45:25.765Z,69.00
2018-08-11T06:47:54.215Z,68.60
2018-08-11T06:50:22.689Z,68.60
2018-08-11T06:52:51.337Z,68.30
2018-08-11T06:55:19.762Z,68.10
2018-08-11T06:57:48.222Z,67.60
2018-08-11T07:00:16.879Z,66.90
2018-08-11T07:02:45.367Z,65.20
2018-08-11T07:05:13.849Z,63.50
2018-08-11T07:07:42.393Z,62.60
2018-08-11T07:10:10.835Z,61.70
2018-08-11T07:12:39.256Z,59.80
2018-08-11T07:15:07.812Z,57.90
2018-08-11T07:17:36.258Z,57.30
2018-08-11T07:20:05.183Z,57.50
2018-08-11T07:22:33.605Z,57.40
2018-08-11T07:25:02.190Z,55.00
2018-08-11T07:27:30.630Z,52.80
2018-08-11T07:29:59.097Z,51.50
2018-08-11T07:32:27.532Z,50.90
2018-08-11T07:34:56.005Z,51.40
2018-08-11T07:37:24.467Z,51.50
2018-08-11T07:39:52.924Z,51.00
2018-08-11T07:42:21.413Z,51.60
2018-08-11T07:44:49.827Z,50.20
2018-08-11T07:47:18.302Z,51.00
2018-08-11T07:49:46.755Z,50.10
2018-08-11T07:52:15.227Z,49.30
2018-08-11T07:54:43.647Z,48.90
2018-08-11T07:57:12.124Z,48.40
2018-08-11T07:59:40.606Z,45.90
2018-08-11T08:02:09.125Z,45.90
2018-08-11T08:04:37.578Z,44.00
2018-08-11T08:07:06.114Z,43.30
2018-08-11T08:09:34.558Z,43.10
2018-08-11T08:12:03.013Z,42.40
2018-08-11T08:14:31.438Z,42.70
2018-08-11T08:16:59.906Z,42.90
2018-08-11T08:19:28.328Z,43.70
2018-08-11T08:21:56.784Z,43.50
2018-08-11T08:24:25.233Z,43.20
2018-08-11T08:26:53.748Z,43.30
2018-08-11T08:29:22.578Z,41.30
2018-08-11T08:31:51.054Z,42.10
2018-08-11T08:34:19.507Z,40.90
2018-08-11T08:36:47.974Z,40.30
2018-08-11T08:39:16.429Z,40.20
2018-08-11T08:41:44.907Z,40.80
2018-08-11T08:44:13.350Z,40.90
2018-08-11T08:46:41.981Z,40.80
2018-08-11T08:49:10.413Z,41.10
2018-08-11T08:51:38.881Z,40.90
2018-08-11T08:54:07.324Z,41.50
2018-08-11T08:56:35.795Z,41.00
2018-08-11T08:59:04.290Z,41.20
2018-08-11T09:01:32.757Z,41.30
2018-08-11T09:04:01.197Z,40.80
2018-08-11T09:06:29.665Z,39.60
2018-08-11T09:08:58.142Z,39.20
2018-08-11T09:11:26.576Z,39.90
2018-08-11T09:13:55.894Z,38.40
2018-08-11T09:16:24.392Z,38.70
2018-08-11T09:18:52.907Z,37.90
2018-08-11T09:21:21.400Z,37.30
2018-08-11T09:23:49.834Z,36.60
2018-08-11T09:26:18.262Z,37.20
2018-08-11T09:28:46.717Z,37.20
2018-08-11T09:31:15.148Z,37.30
2018-08-11T09:33:43.601Z,36.80
2018-08-11T09:36:12.023Z,35.50
2018-08-11T09:38:40.486Z,34.60
2018-08-11T09:41:09.180Z,36.00
2018-08-11T09:43:37.670Z,35.90
2018-08-11T09:46:06.203Z,36.10
2018-08-11T09:48:34.658Z,36.50
2018-08-11T09:51:03.158Z,34.40
2018-08-11T09:53:31.639Z,35.00
2018-08-11T09:56:00.078Z,35.70
2018-08-11T09:58:28.928Z,35.80
2018-08-11T10:01:01.612Z,36.30
2018-08-11T10:03:30.084Z,36.10
2018-08-11T10:05:58.508Z,35.40
2018-08-11T10:08:27.061Z,34.60
2018-08-11T10:10:55.556Z,35.50
2018-08-11T10:13:24.030Z,36.80
2018-08-11T10:15:52.510Z,36.00
2018-08-11T10:18:21.225Z,35.80
2018-08-11T10:20:49.685Z,36.60
2018-08-11T10:23:18.165Z,35.70
2018-08-11T10:25:46.622Z,36.80
2018-08-11T10:28:15.109Z,36.60
2018-08-11T10:30:44.330Z,36.70
2018-08-11T10:33:12.860Z,37.30
2018-08-11T10:35:41.324Z,38.00
2018-08-11T10:38:09.818Z,38.30
2018-08-11T10:40:38.298Z,39.40
2018-08-11T10:43:06.841Z,38.00
2018-08-11T10:45:35.313Z,37.30
2018-08-11T10:48:03.921Z,36.80
2018-08-11T10:50:32.374Z,37.80
2018-08-11T10:53:00.849Z,38.70
2018-08-11T10:55:29.358Z,38.90
2018-08-11T10:57:57.882Z,39.40
2018-08-11T11:00:26.350Z,39.10
2018-08-11T11:02:54.857Z,37.60
2018-08-11T11:05:23.355Z,37.70
2018-08-11T11:07:51.909Z,38.80
2018-08-11T11:10:20.413Z,38.60
2018-08-11T11:12:48.925Z,39.20
2018-08-11T11:15:17.486Z,38.30
2018-08-11T11:17:45.964Z,37.10
2018-08-11T11:20:14.415Z,37.50
2018-08-11T11:22:42.948Z,37.10
2018-08-11T11:25:11.519Z,36.70
2018-08-11T11:27:40.535Z,36.50
2018-08-11T11:30:09.044Z,35.90
2018-08-11T11:32:37.542Z,36.20
2018-08-11T11:35:06.157Z,37.10
2018-08-11T11:37:34.685Z,36.50
2018-08-11T11:40:03.193Z,36.20
2018-08-11T11:42:33.363Z,35.90
2018-08-11T11:45:02.081Z,35.80
2018-08-11T11:47:31.034Z,35.90
2018-08-11T11:49:59.750Z,35.50
2018-08-11T11:52:28.586Z,35.60
2018-08-11T11:54:57.282Z,36.30
2018-08-11T11:57:26.086Z,36.60
2018-08-11T11:59:54.774Z,36.90
2018-08-11T12:02:23.696Z,37.90
2018-08-11T12:04:52.182Z,38.60
2018-08-11T12:07:20.896Z,38.20
2018-08-11T12:09:49.443Z,38.20
2018-08-11T12:12:17.936Z,38.10
2018-08-11T12:14:46.678Z,38.60
2018-08-11T12:17:15.122Z,38.40
2018-08-11T12:19:43.599Z,38.00
2018-08-11T12:22:12.050Z,38.10
2018-08-11T12:24:40.611Z,37.10
2018-08-11T12:27:09.108Z,36.70
2018-08-11T12:29:37.570Z,37.30
2018-08-11T12:32:06.021Z,38.10
2018-08-11T12:34:34.488Z,38.30
2018-08-11T12:37:02.909Z,38.10
2018-08-11T12:39:31.414Z,38.10
2018-08-11T12:41:59.837Z,38.10
2018-08-11T12:44:28.303Z,38.50
2018-08-11T12:46:56.728Z,36.80
2018-08-11T12:49:26.043Z,35.80
2018-08-11T12:51:54.513Z,35.30
2018-08-11T12:54:22.984Z,36.40
2018-08-11T12:56:51.408Z,37.10
2018-08-11T12:59:19.945Z,37.30
2018-08-11T13:01:48.389Z,35.20
2018-08-11T13:04:16.836Z,34.80
2018-08-11T13:06:45.338Z,34.60
2018-08-11T13:09:13.844Z,34.30
2018-08-11T13:11:42.283Z,32.40
2018-08-11T13:14:10.768Z,32.90
2018-08-11T13:16:39.237Z,33.50
2018-08-11T13:19:08.059Z,33.00
2018-08-11T13:21:36.850Z,33.70
2018-08-11T13:24:05.326Z,33.20
2018-08-11T13:26:33.774Z,33.60
2018-08-11T13:29:02.269Z,34.00
2018-08-11T13:31:30.709Z,33.20
2018-08-11T13:33:59.198Z,32.40
2018-08-11T13:36:27.646Z,31.40
2018-08-11T13:38:56.556Z,32.10
2018-08-11T13:41:24.988Z,30.20
2018-08-11T13:43:53.501Z,30.00
2018-08-11T13:46:21.964Z,30.80
2018-08-11T13:48:50.629Z,32.20
2018-08-11T13:51:19.102Z,33.00
2018-08-11T13:53:47.534Z,34.30
2018-08-11T13:56:15.989Z,31.80
2018-08-11T13:58:44.476Z,31.70
2018-08-11T14:01:12.994Z,32.30
2018-08-11T14:03:41.439Z,33.30
2018-08-11T14:06:10.182Z,33.00
2018-08-11T14:08:38.660Z,34.00
2018-08-11T14:11:07.668Z,33.10
2018-08-11T14:13:36.122Z,32.50
2018-08-11T14:16:11.219Z,32.40
2018-08-11T14:18:39.704Z,31.20
2018-08-11T14:21:08.189Z,30.00
2018-08-11T14:23:36.658Z,29.60
2018-08-11T14:26:05.253Z,29.80
2018-08-11T14:28:33.709Z,30.00
2018-08-11T14:31:02.208Z,29.50
2018-08-11T14:33:30.680Z,29.70
2018-08-11T14:35:59.167Z,30.40
2018-08-11T14:38:27.601Z,30.50
2018-08-11T14:40:56.186Z,31.10
2018-08-11T14:43:24.621Z,30.70
2018-08-11T14:45:53.077Z,29.60
2018-08-11T14:48:21.549Z,30.00
2018-08-11T14:50:50.013Z,30.60
2018-08-11T14:53:18.449Z,30.40
2018-08-11T14:55:46.911Z,30.60
2018-08-11T14:58:15.422Z,31.70
2018-08-11T15:00:43.935Z,31.70
2018-08-11T15:03:12.374Z,31.30
2018-08-11T15:05:40.905Z,32.00
2018-08-11T15:08:09.413Z,30.90
2018-08-11T15:10:37.890Z,31.00
2018-08-11T15:13:06.318Z,31.30
2018-08-11T15:15:35.487Z,31.50
2018-08-11T15:18:03.954Z,32.20
2018-08-11T15:20:32.413Z,32.50
2018-08-11T15:23:00.834Z,31.70
2018-08-11T15:25:29.326Z,31.40
2018-08-11T15:27:57.808Z,30.50
2018-08-11T15:30:26.295Z,31.60
2018-08-11T15:32:54.756Z,31.90
2018-08-11T15:35:23.255Z,32.10
2018-08-11T15:37:51.679Z,32.20
2018-08-11T15:40:20.167Z,33.70
2018-08-11T15:42:48.653Z,32.60
2018-08-11T15:45:17.111Z,32.80
2018-08-11T15:47:45.597Z,33.20
2018-08-11T15:50:14.058Z,33.20
2018-08-11T15:52:42.573Z,33.80
2018-08-11T15:55:11.012Z,33.80
2018-08-11T15:57:39.478Z,33.70
2018-08-11T16:00:08.479Z,33.10
2018-08-11T16:02:37.178Z,33.10
2018-08-11T16:05:05.773Z,32.30
2018-08-11T16:07:34.247Z,32.80
2018-08-11T16:10:02.720Z,33.10
2018-08-11T16:12:31.202Z,33.00
2018-08-11T16:14:59.706Z,33.00
2018-08-11T16:17:28.176Z,34.00
2018-08-11T16:19:56.647Z,34.30
2018-08-11T16:22:25.121Z,33.40
2018-08-11T16:24:53.607Z,33.50
2018-08-11T16:27:22.054Z,33.60
2018-08-11T16:29:50.535Z,33.40
2018-08-11T16:32:18.973Z,33.80
2018-08-11T16:34:47.443Z,33.40
2018-08-11T16:37:15.909Z,33.60
2018-08-11T16:39:44.405Z,33.80
2018-08-11T16:42:12.879Z,33.70
2018-08-11T16:44:41.602Z,34.10
2018-08-11T16:47:10.118Z,33.20
2018-08-11T16:49:38.567Z,33.60
2018-08-11T16:52:07.036Z,34.00
2018-08-11T16:54:35.522Z,33.50
2018-08-11T16:57:04.046Z,33.50
2018-08-11T16:59:32.558Z,33.70
2018-08-11T17:02:01.078Z,34.00
2018-08-11T17:04:29.508Z,34.50
2018-08-11T17:06:57.997Z,34.40
2018-08-11T17:09:26.499Z,34.90
2018-08-11T17:11:54.978Z,34.50
2018-08-11T17:14:23.414Z,35.10
2018-08-11T17:16:51.912Z,35.40
2018-08-11T17:19:20.342Z,35.40
2018-08-11T17:21:48.800Z,34.90
2018-08-11T17:24:17.261Z,35.50
2018-08-11T17:26:45.761Z,35.80
2018-08-11T17:29:14.172Z,36.00
2018-08-11T17:31:42.671Z,36.10
2018-08-11T17:34:11.421Z,35.80
2018-08-11T17:36:39.941Z,35.90
2018-08-11T17:39:09.842Z,36.10
2018-08-11T17:41:38.279Z,36.30
2018-08-11T17:44:06.821Z,36.50
2018-08-11T17:46:35.305Z,36.80
2018-08-11T17:49:03.886Z,36.80
2018-08-11T17:51:32.277Z,37.20
2018-08-11T17:54:00.784Z,36.80
2018-08-11T17:56:29.258Z,37.20
2018-08-11T17:58:57.734Z,37.20
2018-08-11T18:01:26.180Z,37.30
2018-08-11T18:03:54.657Z,37.40
2018-08-11T18:06:24.060Z,37.60
2018-08-11T18:08:52.483Z,37.60
2018-08-11T18:11:20.927Z,37.90
2018-08-11T18:13:49.403Z,38.20
2018-08-11T18:16:17.854Z,38.30
2018-08-11T18:18:46.341Z,38.30
2018-08-11T18:21:15.381Z,38.60
2018-08-11T18:23:43.852Z,38.90
2018-08-11T18:26:12.303Z,39.10
2018-08-11T18:28:40.796Z,39.10
2018-08-11T18:31:09.251Z,39.50
2018-08-11T18:33:37.882Z,39.80
2018-08-11T18:36:06.455Z,40.10
2018-08-11T18:38:34.937Z,40.10
2018-08-11T18:41:03.424Z,40.90
2018-08-11T18:43:31.935Z,40.40
2018-08-11T18:46:00.386Z,40.60
2018-08-11T18:48:28.934Z,40.70
2018-08-11T18:50:57.397Z,40.90
2018-08-11T18:53:25.824Z,40.90
2018-08-11T18:55:54.324Z,41.00
2018-08-11T18:58:22.791Z,41.20
2018-08-11T19:00:51.326Z,41.20
2018-08-11T19:03:19.794Z,41.40
2018-08-11T19:05:49.159Z,41.50
2018-08-11T19:08:17.606Z,41.60
2018-08-11T19:10:46.126Z,41.80
2018-08-11T19:13:14.592Z,42.10
2018-08-11T19:15:43.120Z,42.40
2018-08-11T19:27:21.214Z,43.60
2018-08-11T19:29:49.695Z,44.10
2018-08-11T19:32:18.175Z,44.60
2018-08-11T19:34:46.612Z,44.70
2018-08-11T19:37:15.103Z,45.10
2018-08-11T19:39:43.586Z,45.50
2018-08-11T19:42:12.122Z,46.40
2018-08-11T19:44:40.581Z,45.90
2018-08-11T19:47:09.150Z,45.90
2018-08-11T19:49:37.703Z,46.00
2018-08-11T19:52:06.621Z,46.10
2018-08-11T19:54:35.112Z,46.20
2018-08-11T19:57:03.685Z,46.50
2018-08-11T19:59:32.450Z,46.50
2018-08-11T20:02:01.006Z,46.70
2018-08-11T20:04:29.466Z,47.00
2018-08-11T20:06:57.981Z,47.20
2018-08-11T20:09:26.445Z,47.40
2018-08-11T20:11:54.916Z,47.70
2018-08-11T20:14:23.552Z,47.80
2018-08-11T20:16:52.059Z,48.90
2018-08-11T20:19:20.656Z,49.20
2018-08-11T20:21:49.048Z,48.70
2018-08-11T20:24:17.575Z,48.90
2018-08-11T20:26:46.050Z,49.00
2018-08-11T20:29:14.569Z,49.30
2018-08-11T20:31:43.040Z,49.80
2018-08-11T20:34:11.565Z,49.80
2018-08-11T20:36:40.072Z,50.10
2018-08-11T20:39:13.500Z,50.20
2018-08-11T20:41:41.975Z,50.60
2018-08-11T20:44:10.545Z,50.90
2018-08-11T20:46:39.032Z,51.10
2018-08-11T20:49:07.797Z,51.20
2018-08-11T20:51:36.324Z,51.60
2018-08-11T20:54:04.849Z,51.50
2018-08-11T20:56:33.548Z,51.50
2018-08-11T20:59:02.132Z,51.70
2018-08-11T21:01:30.683Z,51.70
2018-08-11T21:04:03.210Z,52.10
2018-08-11T21:06:31.678Z,52.40
2018-08-11T21:09:00.188Z,52.40
2018-08-11T21:11:28.755Z,52.40
2018-08-11T21:13:57.241Z,52.70
2018-08-11T21:16:26.157Z,52.70
2018-08-11T21:18:54.636Z,52.90
2018-08-11T21:21:23.177Z,53.10
2018-08-11T21:23:51.668Z,53.20
2018-08-11T21:26:20.143Z,53.70
2018-08-11T21:28:48.598Z,54.00
2018-08-11T21:31:17.066Z,54.10
2018-08-11T21:33:45.538Z,54.50
2018-08-11T21:36:14.014Z,54.70
2018-08-11T21:38:42.542Z,54.90
2018-08-11T21:41:11.070Z,54.70
2018-08-11T21:43:39.533Z,54.80
2018-08-11T21:46:14.001Z,54.80
2018-08-11T21:48:42.622Z,55.00
2018-08-11T21:51:11.272Z,55.20
2018-08-11T21:53:39.826Z,55.30
2018-08-11T21:56:11.550Z,55.50
2018-08-11T21:58:40.110Z,55.80
2018-08-11T22:01:14.411Z,56.30
2018-08-11T22:03:43.863Z,56.30
2018-08-11T22:06:12.795Z,56.30
2018-08-11T22:08:41.380Z,56.80
2018-08-11T22:11:09.958Z,56.90
2018-08-11T22:13:38.525Z,56.40
2018-08-11T22:16:07.677Z,56.40
2018-08-11T22:18:36.733Z,56.50
2018-08-11T22:21:05.354Z,56.20
2018-08-11T22:23:34.132Z,55.90
2018-08-11T22:26:02.601Z,55.90
2018-08-11T22:28:31.151Z,55.90
2018-08-11T22:30:59.659Z,55.90
2018-08-11T22:33:29.662Z,55.70
2018-08-11T22:35:58.210Z,55.60
2018-08-11T22:38:26.732Z,55.70
2018-08-11T22:40:55.274Z,55.90
2018-08-11T22:43:23.737Z,56.30
2018-08-11T22:45:52.255Z,56.60
2018-08-11T22:48:20.720Z,56.70
2018-08-11T22:50:49.239Z,56.80
2018-08-11T22:53:17.715Z,57.20
2018-08-11T22:55:46.221Z,57.40
2018-08-11T22:58:16.561Z,57.80
2018-08-11T23:00:45.089Z,57.90
2018-08-11T23:03:13.606Z,58.10
2018-08-11T23:05:42.118Z,58.30
2018-08-11T23:08:10.593Z,58.40
2018-08-11T23:10:39.123Z,58.40
2018-08-11T23:13:07.621Z,58.10
2018-08-11T23:15:36.137Z,58.50
2018-08-11T23:18:04.670Z,58.40
2018-08-11T23:20:33.183Z,58.50
2018-08-11T23:23:01.706Z,58.50
2018-08-11T23:25:30.259Z,58.50
2018-08-11T23:27:58.770Z,58.90
2018-08-11T23:30:27.313Z,59.20
2018-08-11T23:32:55.793Z,59.40
2018-08-11T23:35:24.334Z,59.50
2018-08-11T23:37:52.845Z,59.50
2018-08-11T23:40:21.302Z,59.40
2018-08-11T23:42:49.800Z,59.30
2018-08-11T23:45:18.266Z,59.50
2018-08-11T23:47:46.746Z,60.00
2018-08-11T23:50:15.624Z,60.00
2018-08-11T23:52:44.913Z,60.00
2018-08-11T23:55:14.233Z,59.80
2018-08-11T23:57:42.784Z,59.80
